Time;durP1;ratioP1;P1;durP2;ratioP2;P2;SDS_P1;SDS_P2;PMS_P1;PMS_P2;Temp;Humidity;BMP_temperature;BMP_pressure;BME280_temperature;BME280_humidity;BME280_pressure;Samples;Min_cycle;Max_cycle;Signal;HPM_P1;HPM_P2
2022/07/17 00:00:29;;;;;;;6.47;3.80;;;13.50;30.50;;;;;;5039398;28;46482;-62
2022/07/17 00:02:58;;;;;;;6.90;3.77;;;13.50;30.50;;;;;;5038584;28;46588;-63
2022/07/17 00:05:24;;;;;;;8.83;3.40;;;13.50;30.50;;;;;;5036432;28;46403;-62
2022/07/17 00:07:50;;;;;;;8.30;3.47;;;13.50;30.60;;;;;;5039726;28;46412;-62
2022/07/17 00:10:19;;;;;;;7.97;3.03;;;13.50;30.70;;;;;;5034456;28;46587;-62
2022/07/17 00:12:52;;;;;;;7.43;2.80;;;13.50;31.00;;;;;;5039687;28;46005;-62
2022/07/17 00:15:19;;;;;;;8.77;3.20;;;13.40;31.00;;;;;;5030930;28;47890;-62
2022/07/17 00:17:45;;;;;;;7.77;2.87;;;13.50;31.20;;;;;;5035826;28;46468;-62
2022/07/17 00:20:14;;;;;;;6.50;3.30;;;13.50;31.10;;;;;;5038881;28;46428;-62
2022/07/17 00:22:48;;;;;;;10.20;3.30;;;13.40;31.30;;;;;;5037592;28;46521;-62
2022/07/17 00:25:15;;;;;;;6.80;3.13;;;13.40;31.30;;;;;;5038192;28;48049;-62
2022/07/17 00:27:41;;;;;;;5.00;2.80;;;13.40;31.20;;;;;;5035394;28;46358;-62
2022/07/17 00:30:08;;;;;;;8.30;3.37;;;13.30;31.20;;;;;;5037538;28;46447;-62
2022/07/17 00:32:37;;;;;;;6.43;2.80;;;13.20;31.40;;;;;;5036466;28;46434;-62
2022/07/17 00:35:07;;;;;;;7.53;2.73;;;13.10;31.50;;;;;;5039056;28;46467;-62
2022/07/17 00:37:45;;;;;;;10.10;3.33;;;13.10;31.70;;;;;;5035109;28;46157;-62
2022/07/17 00:40:21;;;;;;;5.43;2.90;;;13.00;32.00;;;;;;5036136;28;46557;-62
2022/07/17 00:42:51;;;;;;;16.23;4.10;;;12.90;32.10;;;;;;5035964;28;46469;-62
2022/07/17 00:45:24;;;;;;;6.07;3.20;;;12.80;32.10;;;;;;5036264;28;46671;-62
2022/07/17 00:48:09;;;;;;;7.87;3.30;;;12.80;32.10;;;;;;5038776;28;46613;-62
2022/07/17 00:50:38;;;;;;;5.50;2.73;;;12.80;32.70;;;;;;5034597;28;46461;-62
2022/07/17 00:53:07;;;;;;;9.27;3.90;;;12.70;32.20;;;;;;5021891;28;46540;-62
2022/07/17 00:55:37;;;;;;;5.80;2.73;;;12.70;32.70;;;;;;5052097;28;47682;-62
2022/07/17 00:58:09;;;;;;;8.63;3.17;;;12.60;32.60;;;;;;5037898;28;46450;-62
2022/07/17 01:00:35;;;;;;;4.77;2.80;;;12.60;32.70;;;;;;5038552;28;46336;-63
2022/07/17 01:03:03;;;;;;;5.60;2.80;;;12.60;32.90;;;;;;5036553;28;46539;-62
2022/07/17 01:05:31;;;;;;;18.63;4.70;;;12.50;33.10;;;;;;5038376;28;47211;-62
2022/07/17 01:07:57;;;;;;;4.40;2.77;;;12.40;33.40;;;;;;5037509;28;46435;-62
2022/07/17 01:10:26;;;;;;;7.30;2.77;;;12.40;33.60;;;;;;5037759;28;46478;-62
2022/07/17 01:12:52;;;;;;;6.17;2.57;;;12.40;33.60;;;;;;5037470;28;46356;-62
2022/07/17 01:15:18;;;;;;;4.90;3.10;;;12.40;33.70;;;;;;5044539;28;47996;-62
2022/07/17 01:17:44;;;;;;;10.93;3.40;;;12.40;33.70;;;;;;5038756;28;45771;-62
2022/07/17 01:20:14;;;;;;;6.03;3.13;;;12.40;33.70;;;;;;5035196;28;46426;-61
2022/07/17 01:22:58;;;;;;;6.10;2.63;;;12.50;33.80;;;;;;5036907;28;46392;-62
2022/07/17 01:25:27;;;;;;;16.90;3.73;;;12.50;34.30;;;;;;5037942;28;46522;-62
2022/07/17 01:27:58;;;;;;;9.33;3.27;;;12.50;33.80;;;;;;5026988;28;46443;-62
2022/07/17 01:30:25;;;;;;;8.03;2.67;;;12.50;34.10;;;;;;5037056;28;46327;-62
2022/07/17 01:32:51;;;;;;;5.53;3.20;;;12.50;34.10;;;;;;5036294;28;46111;-62
2022/07/17 01:35:18;;;;;;;7.07;2.80;;;12.50;34.20;;;;;;5034911;28;46113;-62
2022/07/17 01:37:47;;;;;;;6.30;3.07;;;12.40;34.20;;;;;;5039271;28;45881;-62
2022/07/17 01:40:15;;;;;;;4.90;2.87;;;12.30;34.30;;;;;;5038383;28;46453;-62
2022/07/17 01:42:48;;;;;;;9.70;2.80;;;12.30;34.50;;;;;;5035579;28;46476;-62
2022/07/17 01:45:15;;;;;;;8.33;3.23;;;12.20;34.60;;;;;;5050531;28;47820;-62
2022/07/17 01:47:43;;;;;;;6.40;3.30;;;12.20;34.50;;;;;;5036727;28;46314;-62
2022/07/17 01:50:11;;;;;;;5.83;2.80;;;12.20;34.60;;;;;;5036224;28;46701;-62
2022/07/17 01:52:43;;;;;;;5.17;3.20;;;12.10;34.80;;;;;;5047475;28;46341;-62
2022/07/17 01:55:11;;;;;;;6.10;3.20;;;12.10;34.90;;;;;;5036866;28;47916;-62
2022/07/17 01:57:39;;;;;;;5.90;3.07;;;12.10;34.90;;;;;;5035053;28;46393;-61
2022/07/17 02:00:10;;;;;;;5.60;3.10;;;12.00;34.80;;;;;;5036425;28;46407;-62
2022/07/17 02:02:36;;;;;;;6.73;2.60;;;12.00;36.30;;;;;;5034866;28;46490;-62
2022/07/17 02:05:03;;;;;;;10.20;3.20;;;12.00;35.10;;;;;;5036817;28;46669;-62
2022/07/17 02:07:34;;;;;;;6.90;3.70;;;12.00;35.20;;;;;;5034242;28;46382;-62
2022/07/17 02:10:03;;;;;;;5.60;3.03;;;11.90;35.20;;;;;;5035289;28;45869;-62
2022/07/17 02:12:30;;;;;;;5.73;3.07;;;12.00;35.30;;;;;;5035224;28;46607;-62
2022/07/17 02:14:56;;;;;;;5.83;2.90;;;12.00;35.50;;;;;;5034811;28;46502;-62
2022/07/17 02:17:22;;;;;;;7.43;3.17;;;12.00;35.50;;;;;;5020238;28;46602;-62
2022/07/17 02:19:48;;;;;;;5.57;3.13;;;12.00;35.70;;;;;;5038937;28;46342;-62
2022/07/17 02:22:15;;;;;;;6.10;3.00;;;11.90;35.70;;;;;;5038425;28;46843;-62
2022/07/17 02:24:43;;;;;;;6.83;3.20;;;11.80;36.00;;;;;;5040663;28;46362;-62
2022/07/17 02:27:13;;;;;;;7.80;3.53;;;11.80;36.10;;;;;;5041180;28;46400;-62
2022/07/17 02:29:39;;;;;;;9.63;3.17;;;11.70;36.20;;;;;;5041196;28;45906;-62
2022/07/17 02:32:06;;;;;;;8.50;3.30;;;11.80;36.20;;;;;;5041354;28;45905;-61
2022/07/17 02:34:32;;;;;;;7.23;3.50;;;11.80;36.20;;;;;;5038862;28;47829;-62
2022/07/17 02:37:00;;;;;;;6.20;2.83;;;11.80;36.10;;;;;;5039579;28;46440;-61
2022/07/17 02:39:26;;;;;;;7.33;3.30;;;11.80;36.30;;;;;;5039727;28;46332;-62
2022/07/17 02:41:54;;;;;;;8.20;2.97;;;11.80;36.40;;;;;;5040700;28;46559;-62
2022/07/17 02:44:20;;;;;;;4.70;2.90;;;11.70;36.40;;;;;;5040149;28;47697;-61
2022/07/17 02:46:49;;;;;;;5.20;3.20;;;11.70;36.60;;;;;;5037871;28;46511;-63
2022/07/17 02:49:18;;;;;;;5.80;2.80;;;11.70;36.50;;;;;;5039042;28;46322;-62
2022/07/17 02:51:50;;;;;;;4.90;2.67;;;11.70;36.60;;;;;;5035804;28;46477;-62
2022/07/17 02:54:16;;;;;;;8.07;3.90;;;11.60;36.60;;;;;;5039563;28;46391;-62
2022/07/17 02:56:42;;;;;;;6.10;2.57;;;11.60;36.60;;;;;;5035850;28;46365;-63
2022/07/17 02:59:08;;;;;;;11.23;3.10;;;11.50;36.80;;;;;;5037724;28;46325;-63
2022/07/17 03:01:34;;;;;;;4.97;3.07;;;11.50;36.90;;;;;;5038163;28;46479;-63
2022/07/17 03:04:03;;;;;;;8.60;3.27;;;11.40;36.90;;;;;;5042102;28;47531;-62
2022/07/17 03:06:29;;;;;;;7.20;3.37;;;11.30;36.90;;;;;;5037584;28;46449;-62
2022/07/17 03:08:58;;;;;;;8.30;3.10;;;11.20;37.00;;;;;;5035436;28;46527;-62
2022/07/17 03:11:24;;;;;;;7.43;3.23;;;11.20;37.10;;;;;;5040776;28;46201;-62
2022/07/17 03:13:50;;;;;;;5.03;3.03;;;11.20;37.20;;;;;;5038763;28;46634;-63
2022/07/17 03:16:19;;;;;;;5.50;2.90;;;11.10;37.30;;;;;;5039448;28;46276;-62
2022/07/17 03:18:48;;;;;;;4.57;3.00;;;11.10;37.30;;;;;;5036441;28;46408;-62
2022/07/17 03:21:14;;;;;;;5.57;2.90;;;11.10;37.40;;;;;;5052428;28;46702;-63
2022/07/17 03:23:42;;;;;;;7.00;2.87;;;11.10;37.20;;;;;;5038840;28;48674;-63
2022/07/17 03:26:08;;;;;;;5.67;3.30;;;11.10;37.20;;;;;;5038014;28;46426;-63
2022/07/17 03:28:37;;;;;;;4.97;3.20;;;11.20;37.30;;;;;;5037411;28;45946;-62
2022/07/17 03:31:09;;;;;;;4.90;3.40;;;11.10;37.30;;;;;;5038924;28;45947;-62
2022/07/17 03:33:35;;;;;;;4.90;3.27;;;11.10;37.60;;;;;;5039189;28;48892;-62
2022/07/17 03:36:01;;;;;;;5.60;3.27;;;11.10;37.40;;;;;;5040261;28;45802;-62
2022/07/17 03:38:27;;;;;;;4.80;3.10;;;11.10;37.40;;;;;;5036398;28;45944;-62
2022/07/17 03:40:53;;;;;;;5.80;3.20;;;11.10;37.40;;;;;;5046516;28;46422;-62
2022/07/17 03:43:21;;;;;;;5.10;2.90;;;11.10;37.50;;;;;;5038537;28;47112;-62
2022/07/17 03:45:47;;;;;;;12.17;4.00;;;11.00;37.80;;;;;;5038732;28;45857;-62
2022/07/17 03:48:14;;;;;;;6.53;3.00;;;11.00;37.80;;;;;;5040189;28;46374;-62
2022/07/17 03:50:41;;;;;;;4.80;3.17;;;11.10;37.60;;;;;;5054030;28;46396;-62
2022/07/17 03:53:07;;;;;;;6.60;3.43;;;11.10;37.30;;;;;;5040387;28;46986;-61
2022/07/17 03:55:36;;;;;;;4.93;3.17;;;11.10;37.20;;;;;;5039050;28;46568;-62
2022/07/17 03:58:02;;;;;;;6.40;3.53;;;11.10;37.20;;;;;;5038129;28;46490;-61
2022/07/17 04:00:30;;;;;;;4.77;2.80;;;11.10;37.30;;;;;;5038164;28;46407;-61
2022/07/17 04:02:56;;;;;;;6.83;3.17;;;11.10;37.30;;;;;;5039646;28;46902;-62
2022/07/17 04:05:22;;;;;;;5.43;3.30;;;11.20;37.30;;;;;;5036883;28;46386;-62
2022/07/17 04:07:54;;;;;;;8.23;3.40;;;11.30;37.20;;;;;;5038435;28;46045;-62
2022/07/17 04:10:20;;;;;;;5.33;3.40;;;11.30;37.20;;;;;;5037049;28;46582;-62
2022/07/17 04:12:47;;;;;;;5.80;3.47;;;11.40;37.10;;;;;;5039308;28;46427;-62
2022/07/17 04:15:48;;;;;;;5.30;3.30;;;11.50;37.10;;;;;;5037277;28;46393;-62
2022/07/17 04:18:05;;;;;;;9.60;3.30;;;11.60;37.00;;;;;;5039553;28;45869;-62
2022/07/17 04:20:31;;;;;;;7.10;3.50;;;11.70;36.80;;;;;;5038673;28;46430;-63
2022/07/17 04:22:59;;;;;;;6.73;3.40;;;11.70;36.90;;;;;;5030849;28;47181;-63
2022/07/17 04:25:26;;;;;;;5.33;3.33;;;11.70;36.90;;;;;;5039959;28;46143;-62
2022/07/17 04:27:56;;;;;;;6.03;3.30;;;11.70;37.00;;;;;;5039303;28;46303;-61
2022/07/17 04:30:24;;;;;;;4.93;3.83;;;11.70;36.80;;;;;;5036274;28;46653;-63
2022/07/17 04:32:50;;;;;;;6.87;3.80;;;11.80;37.00;;;;;;5038021;28;47999;-63
2022/07/17 04:35:16;;;;;;;5.20;3.47;;;11.90;36.80;;;;;;5039966;28;46390;-63
2022/07/17 04:37:46;;;;;;;6.50;3.53;;;12.00;36.60;;;;;;5040099;28;46417;-62
2022/07/17 04:40:12;;;;;;;5.97;3.10;;;12.20;36.60;;;;;;5037343;28;46553;-62
2022/07/17 04:42:41;;;;;;;5.70;3.40;;;12.30;36.60;;;;;;5039201;28;47782;-62
2022/07/17 04:45:09;;;;;;;6.50;3.57;;;12.40;36.50;;;;;;5043975;28;46446;-62
2022/07/17 04:47:37;;;;;;;5.40;3.73;;;12.60;36.20;;;;;;5040380;28;46424;-62
2022/07/17 04:50:03;;;;;;;11.13;4.27;;;12.80;36.10;;;;;;5038557;28;46376;-62
2022/07/17 04:52:30;;;;;;;7.10;3.53;;;13.00;35.50;;;;;;5036775;28;48904;-62
2022/07/17 04:54:55;;;;;;;5.67;3.20;;;14.00;34.20;;;;;;5039516;28;45830;-62
2022/07/17 04:57:21;;;;;;;6.40;3.10;;;15.90;32.50;;;;;;5038152;28;45842;-60
2022/07/17 04:59:50;;;;;;;6.30;2.80;;;17.30;30.00;;;;;;5037425;28;46414;-62
2022/07/17 05:02:16;;;;;;;6.27;3.40;;;18.50;28.10;;;;;;5039968;28;48887;-62
2022/07/17 05:04:44;;;;;;;5.70;3.10;;;19.90;26.20;;;;;;5040059;28;46327;-62
2022/07/17 05:07:10;;;;;;;4.80;3.00;;;21.00;24.60;;;;;;5036515;28;46448;-63
2022/07/17 05:09:36;;;;;;;6.00;2.90;;;21.90;23.80;;;;;;5034178;28;46468;-62
2022/07/17 05:12:08;;;;;;;5.67;3.20;;;22.50;22.90;;;;;;5038696;28;46556;-62
2022/07/17 05:14:34;;;;;;;5.80;3.13;;;23.40;21.50;;;;;;5048132;28;46655;-63
2022/07/17 05:17:02;;;;;;;7.40;3.00;;;24.30;20.00;;;;;;5037446;28;46481;-63
2022/07/17 05:19:28;;;;;;;5.90;3.67;;;25.00;18.60;;;;;;5036142;28;46494;-63
2022/07/17 05:21:56;;;;;;;5.40;3.50;;;25.50;17.50;;;;;;5031323;28;46450;-63
2022/07/17 05:24:22;;;;;;;8.60;4.33;;;26.10;16.40;;;;;;5034532;28;46385;-64
2022/07/17 05:26:48;;;;;;;6.23;3.33;;;26.70;15.10;;;;;;5035986;28;46386;-63
2022/07/17 05:29:14;;;;;;;5.27;3.17;;;27.30;13.80;;;;;;5037781;28;46685;-63
2022/07/17 05:31:40;;;;;;;6.97;3.33;;;27.70;12.70;;;;;;5037192;28;47482;-62
2022/07/17 05:34:08;;;;;;;6.30;3.70;;;28.10;11.60;;;;;;5020607;28;46530;-63
2022/07/17 05:36:34;;;;;;;7.10;3.30;;;28.50;10.70;;;;;;5037278;28;46757;-63
2022/07/17 05:39:00;;;;;;;6.47;4.00;;;29.00;9.70;;;;;;5034915;28;46334;-62
2022/07/17 05:41:26;;;;;;;6.90;3.37;;;29.50;8.50;;;;;;5036195;28;47084;-63
2022/07/17 05:43:55;;;;;;;4.90;3.57;;;29.90;7.50;;;;;;5035706;28;46377;-63
2022/07/17 05:46:22;;;;;;;13.17;3.60;;;30.40;6.40;;;;;;5038747;28;46413;-64
2022/07/17 05:48:49;;;;;;;5.27;3.40;;;30.70;5.70;;;;;;5034059;28;46562;-63
2022/07/17 05:51:14;;;;;;;6.20;3.80;;;31.20;4.50;;;;;;5037089;28;47028;-62
2022/07/17 05:53:43;;;;;;;7.43;3.50;;;31.40;3.80;;;;;;5034680;28;46185;-63
2022/07/17 05:56:09;;;;;;;7.70;3.10;;;31.60;3.20;;;;;;5045555;28;46725;-63
2022/07/17 05:58:35;;;;;;;11.23;3.73;;;31.40;2.90;;;;;;5056967;28;46487;-63
2022/07/17 06:01:01;;;;;;;7.70;3.23;;;30.80;3.50;;;;;;5037961;28;46516;-63
2022/07/17 06:03:29;;;;;;;7.97;3.27;;;30.10;4.10;;;;;;5039311;28;46529;-63
2022/07/17 06:05:57;;;;;;;6.20;3.50;;;30.10;4.10;;;;;;5040635;28;46374;-63
2022/07/17 06:08:23;;;;;;;8.20;3.20;;;29.60;5.30;;;;;;5037951;28;46371;-63
2022/07/17 06:10:49;;;;;;;5.50;3.27;;;27.90;7.60;;;;;;5040472;28;48584;-63
2022/07/17 06:13:17;;;;;;;6.37;4.37;;;26.70;9.70;;;;;;5038930;28;46481;-63
2022/07/17 06:15:44;;;;;;;8.60;3.50;;;25.90;11.00;;;;;;5039649;28;46489;-62
2022/07/17 06:18:09;;;;;;;4.60;2.90;;;25.10;12.50;;;;;;5040712;28;45886;-62
2022/07/17 06:20:37;;;;;;;6.83;3.00;;;24.40;13.20;;;;;;5040577;28;46480;-64
2022/07/17 06:23:03;;;;;;;4.97;3.00;;;24.20;13.70;;;;;;5040486;28;46709;-63
2022/07/17 06:25:29;;;;;;;7.17;3.77;;;24.00;14.10;;;;;;5039493;28;46443;-63
2022/07/17 06:27:55;;;;;;;6.20;3.00;;;23.70;14.00;;;;;;5039946;28;46400;-63
2022/07/17 06:30:24;;;;;;;8.77;3.43;;;23.60;13.90;;;;;;5041330;28;45932;-63
2022/07/17 06:32:50;;;;;;;6.30;3.10;;;23.50;14.10;;;;;;5038015;28;46326;-63
2022/07/17 06:35:16;;;;;;;7.20;3.00;;;23.40;13.70;;;;;;5039240;28;46588;-63
2022/07/17 06:37:53;;;;;;;6.17;2.87;;;23.40;13.80;;;;;;5041026;28;46382;-63
2022/07/17 06:40:20;;;;;;;6.90;3.13;;;23.30;13.60;;;;;;5038659;28;46289;-63
2022/07/17 06:42:53;;;;;;;7.43;3.10;;;23.10;13.60;;;;;;5041554;28;46514;-63
2022/07/17 06:45:22;;;;;;;6.00;2.77;;;23.00;13.50;;;;;;5039264;28;46331;-63
2022/07/17 06:47:49;;;;;;;6.57;2.60;;;22.80;13.30;;;;;;5040691;28;46249;-63
2022/07/17 06:50:18;;;;;;;5.70;3.03;;;22.60;13.10;;;;;;5039584;28;46453;-63
2022/07/17 06:52:44;;;;;;;5.50;3.17;;;22.30;13.70;;;;;;5042451;28;46354;-63
2022/07/17 06:55:10;;;;;;;6.23;2.90;;;22.10;13.70;;;;;;5039891;28;46458;-63
2022/07/17 06:57:44;;;;;;;8.00;3.10;;;22.00;13.90;;;;;;5038896;28;46418;-63
2022/07/17 07:00:17;;;;;;;6.73;2.97;;;22.00;13.70;;;;;;5038504;28;46948;-63
2022/07/17 07:02:48;;;;;;;7.50;3.27;;;22.20;13.40;;;;;;5038935;28;46329;-63
2022/07/17 07:05:17;;;;;;;5.57;2.57;;;22.10;13.30;;;;;;5040035;28;46760;-63
2022/07/17 07:07:46;;;;;;;8.23;3.03;;;22.20;12.90;;;;;;5038734;28;46635;-63
2022/07/17 07:10:14;;;;;;;7.20;3.20;;;22.30;12.90;;;;;;5039932;28;47248;-63
2022/07/17 07:12:43;;;;;;;8.13;2.70;;;22.10;12.80;;;;;;5040133;28;46394;-63
2022/07/17 07:15:09;;;;;;;5.27;2.53;;;22.20;12.90;;;;;;5036994;28;46473;-63
2022/07/17 07:17:39;;;;;;;5.97;2.13;;;22.40;13.00;;;;;;5040423;28;46603;-63
2022/07/17 07:20:05;;;;;;;6.50;2.60;;;22.50;13.10;;;;;;5036087;28;46453;-63
2022/07/17 07:22:32;;;;;;;9.50;2.53;;;22.60;13.10;;;;;;5037810;28;46537;-62
2022/07/17 07:25:01;;;;;;;6.10;2.80;;;22.70;12.70;;;;;;5040364;28;46425;-62
2022/07/17 07:27:33;;;;;;;6.33;2.87;;;22.80;12.50;;;;;;5031710;28;46328;-62
2022/07/17 07:30:11;;;;;;;5.00;2.40;;;22.80;12.90;;;;;;5036272;28;47990;-63
2022/07/17 07:32:41;;;;;;;5.73;2.30;;;23.00;12.70;;;;;;5040119;28;46918;-63
2022/07/17 07:35:10;;;;;;;6.23;2.70;;;23.10;12.30;;;;;;5037649;28;46556;-62
2022/07/17 07:37:43;;;;;;;6.33;2.50;;;23.10;12.20;;;;;;5040205;28;46939;-62
2022/07/17 07:40:15;;;;;;;8.33;2.77;;;23.20;11.90;;;;;;5039936;28;46472;-62
2022/07/17 07:42:41;;;;;;;5.63;2.60;;;23.20;12.00;;;;;;5031637;28;46511;-62
2022/07/17 07:45:12;;;;;;;7.20;3.07;;;23.20;12.10;;;;;;5039920;28;46314;-62
2022/07/17 07:47:46;;;;;;;4.90;2.50;;;23.30;12.10;;;;;;5041315;28;46486;-62
2022/07/17 07:50:17;;;;;;;9.90;2.20;;;23.50;11.90;;;;;;5039326;28;46454;-62
2022/07/17 07:52:46;;;;;;;8.77;2.57;;;23.50;11.30;;;;;;5037915;28;46343;-62
2022/07/17 07:55:13;;;;;;;7.20;2.63;;;23.70;11.20;;;;;;5040737;28;46835;-62
2022/07/17 07:57:41;;;;;;;4.70;2.40;;;23.80;10.90;;;;;;5040101;28;46473;-62
2022/07/17 08:00:13;;;;;;;6.70;2.80;;;24.00;10.50;;;;;;5037722;28;46373;-62
2022/07/17 08:02:41;;;;;;;6.93;2.30;;;24.10;10.10;;;;;;5037456;28;46411;-63
2022/07/17 08:05:07;;;;;;;5.10;2.70;;;24.10;10.10;;;;;;5038118;28;46323;-62
2022/07/17 08:07:44;;;;;;;4.67;2.50;;;24.00;9.70;;;;;;5037064;28;46360;-62
2022/07/17 08:10:11;;;;;;;5.10;2.60;;;24.20;9.70;;;;;;5037351;28;47292;-63
2022/07/17 08:12:37;;;;;;;7.50;2.30;;;24.20;9.30;;;;;;5035690;28;46538;-63
2022/07/17 08:15:07;;;;;;;5.47;2.30;;;24.30;9.10;;;;;;5037038;28;46353;-64
2022/07/17 08:17:35;;;;;;;4.77;2.10;;;24.40;8.80;;;;;;5032123;28;46093;-62
2022/07/17 08:20:01;;;;;;;4.97;1.90;;;24.60;8.50;;;;;;5036141;28;48007;-61
2022/07/17 08:22:27;;;;;;;10.50;2.40;;;24.80;8.00;;;;;;5037333;28;45866;-60
2022/07/17 08:24:54;;;;;;;8.80;2.50;;;24.90;8.00;;;;;;5037487;28;46372;-61
2022/07/17 08:27:22;;;;;;;9.90;2.77;;;24.60;8.10;;;;;;5039236;28;46347;-63
2022/07/17 08:29:53;;;;;;;4.77;2.23;;;24.70;8.10;;;;;;5016674;28;46982;-61
2022/07/17 08:32:19;;;;;;;5.00;1.87;;;24.80;8.10;;;;;;5037281;28;46474;-61
2022/07/17 08:34:50;;;;;;;6.60;2.00;;;25.00;7.90;;;;;;5038043;28;46394;-63
2022/07/17 08:37:30;;;;;;;5.70;2.20;;;25.00;7.60;;;;;;5035868;28;45971;-64
2022/07/17 08:40:01;;;;;;;5.50;2.17;;;25.00;7.60;;;;;;5036005;28;46415;-64
2022/07/17 08:42:31;;;;;;;4.30;2.40;;;25.10;7.70;;;;;;5034895;28;46454;-64
2022/07/17 08:45:01;;;;;;;9.83;2.37;;;25.20;7.40;;;;;;5036781;28;46671;-63
2022/07/17 08:47:30;;;;;;;8.33;2.53;;;25.20;7.20;;;;;;5036725;28;47527;-64
2022/07/17 08:49:58;;;;;;;5.07;2.30;;;25.40;7.40;;;;;;5035992;28;46379;-64
2022/07/17 08:52:25;;;;;;;9.43;2.10;;;25.40;7.00;;;;;;5036626;28;46450;-64
2022/07/17 08:54:56;;;;;;;6.17;2.50;;;25.40;7.00;;;;;;5036730;28;46793;-66
2022/07/17 08:57:27;;;;;;;5.03;2.37;;;25.40;6.50;;;;;;5025614;28;46399;-65
2022/07/17 08:59:57;;;;;;;9.07;2.50;;;25.30;6.40;;;;;;5036802;28;46529;-65
2022/07/17 09:02:27;;;;;;;5.47;2.30;;;25.30;6.40;;;;;;5033225;28;46715;-65
2022/07/17 09:04:58;;;;;;;7.60;2.93;;;25.40;6.20;;;;;;5036382;28;46516;-65
2022/07/17 09:07:30;;;;;;;3.90;2.20;;;25.30;6.10;;;;;;5052453;28;46354;-65
2022/07/17 09:09:56;;;;;;;5.00;2.23;;;25.50;5.90;;;;;;5034099;28;47502;-64
2022/07/17 09:12:29;;;;;;;5.80;2.07;;;25.50;6.00;;;;;;5035495;28;46718;-64
2022/07/17 09:15:00;;;;;;;7.20;2.10;;;25.60;5.90;;;;;;5036614;28;46679;-65
2022/07/17 09:17:29;;;;;;;7.00;2.70;;;25.50;6.10;;;;;;5033382;28;46430;-64
2022/07/17 09:19:55;;;;;;;5.23;2.47;;;25.50;5.90;;;;;;5033962;28;48954;-65
2022/07/17 09:22:24;;;;;;;7.73;2.20;;;25.50;5.70;;;;;;5036782;28;46488;-65
2022/07/17 09:24:53;;;;;;;6.23;2.60;;;25.60;5.60;;;;;;5052211;28;46443;-65
2022/07/17 09:27:25;;;;;;;4.83;2.20;;;25.80;5.60;;;;;;5033997;28;46717;-65
2022/07/17 09:29:59;;;;;;;5.87;2.30;;;25.80;5.40;;;;;;5031994;28;46556;-65
2022/07/17 09:32:29;;;;;;;4.63;2.80;;;25.60;5.70;;;;;;5036488;28;46671;-65
2022/07/17 09:35:00;;;;;;;3.77;2.13;;;25.40;5.80;;;;;;5051017;28;46494;-64
2022/07/17 09:37:38;;;;;;;9.13;2.63;;;25.20;6.10;;;;;;5035119;28;46472;-65
2022/07/17 09:42:58;;;;;;;7.10;2.40;;;25.50;5.70;;;;;;5036922;28;46528;-64
2022/07/17 09:45:26;;;;;;;4.83;2.50;;;25.50;5.50;;;;;;5037650;28;45989;-64
2022/07/17 09:47:53;;;;;;;3.73;2.20;;;25.40;5.40;;;;;;5035083;28;46261;-64
2022/07/17 09:50:19;;;;;;;4.10;2.27;;;25.60;5.20;;;;;;5036648;28;46190;-64
2022/07/17 09:52:46;;;;;;;5.23;2.20;;;25.70;5.20;;;;;;5037167;28;46452;-64
2022/07/17 09:55:19;;;;;;;5.37;2.37;;;25.80;5.20;;;;;;5035416;28;46358;-64
2022/07/17 09:57:50;;;;;;;7.20;2.70;;;26.10;4.70;;;;;;5036572;28;45845;-64
2022/07/17 10:00:21;;;;;;;5.13;2.23;;;26.30;4.50;;;;;;5036776;28;47039;-64
2022/07/17 10:02:48;;;;;;;6.13;2.47;;;25.90;4.40;;;;;;5036125;28;46617;-64
2022/07/17 10:05:15;;;;;;;5.90;2.50;;;25.80;4.70;;;;;;5037647;28;46427;-64
2022/07/17 10:07:49;;;;;;;9.40;2.93;;;25.90;4.60;;;;;;5037138;28;46417;-64
2022/07/17 10:10:18;;;;;;;6.00;2.30;;;25.80;3.90;;;;;;5035991;28;46371;-64
2022/07/17 10:12:46;;;;;;;5.33;2.47;;;25.70;3.80;;;;;;5034348;28;46403;-63
2022/07/17 10:15:19;;;;;;;3.27;1.93;;;25.70;3.80;;;;;;5033861;28;46547;-64
2022/07/17 10:17:45;;;;;;;7.80;1.97;;;25.80;3.90;;;;;;5031584;28;46528;-64
2022/07/17 10:20:26;;;;;;;5.53;2.17;;;25.70;3.80;;;;;;5034974;28;47884;-64
2022/07/17 10:22:52;;;;;;;7.03;2.33;;;25.90;3.90;;;;;;5030658;28;46477;-64
2022/07/17 10:25:24;;;;;;;3.73;2.20;;;26.10;4.00;;;;;;5035916;28;46410;-63
2022/07/17 10:27:55;;;;;;;4.40;2.03;;;26.40;4.20;;;;;;5036168;28;46323;-63
2022/07/17 10:30:46;;;;;;;4.30;1.80;;;26.50;4.30;;;;;;5034645;28;47123;-63
2022/07/17 10:33:19;;;;;;;5.47;1.80;;;26.40;4.20;;;;;;5052394;28;46276;-64
2022/07/17 10:35:49;;;;;;;7.63;2.50;;;26.50;4.30;;;;;;5038663;28;45871;-63
2022/07/17 10:38:28;;;;;;;8.63;2.50;;;26.70;4.30;;;;;;5037138;28;46693;-63
2022/07/17 10:41:03;;;;;;;4.83;1.80;;;26.90;3.60;;;;;;5038371;28;46438;-64
2022/07/17 10:43:48;;;;;;;6.07;2.27;;;26.90;3.30;;;;;;5038742;28;46346;-64
2022/07/17 10:46:15;;;;;;;4.90;1.93;;;26.50;3.50;;;;;;5050447;28;46430;-64
2022/07/17 10:48:47;;;;;;;4.00;2.20;;;26.40;3.60;;;;;;5034038;28;46686;-64
2022/07/17 10:51:13;;;;;;;4.30;2.00;;;26.10;3.40;;;;;;5041990;28;46015;-64
2022/07/17 10:53:44;;;;;;;4.10;2.10;;;26.00;4.00;;;;;;5038282;28;46422;-64
2022/07/17 10:56:13;;;;;;;5.30;1.90;;;25.90;3.90;;;;;;5038716;28;46405;-64
2022/07/17 10:58:43;;;;;;;5.00;1.83;;;26.00;3.80;;;;;;5041936;28;46445;-64
2022/07/17 11:01:17;;;;;;;8.27;2.43;;;26.10;3.60;;;;;;5039420;28;46661;-64
2022/07/17 11:03:49;;;;;;;2.90;1.80;;;26.30;2.80;;;;;;5040023;28;46333;-64
2022/07/17 11:06:16;;;;;;;3.47;2.10;;;26.20;2.70;;;;;;5040868;28;46446;-64
2022/07/17 11:08:53;;;;;;;3.97;2.10;;;26.20;3.10;;;;;;5040570;28;46441;-64
2022/07/17 11:11:21;;;;;;;4.27;1.83;;;26.40;3.10;;;;;;5040288;28;46690;-64
2022/07/17 11:13:47;;;;;;;5.40;1.90;;;26.50;2.70;;;;;;5040922;28;46557;-63
2022/07/17 11:16:26;;;;;;;5.77;1.90;;;26.60;2.40;;;;;;5039688;28;46378;-63
2022/07/17 11:18:52;;;;;;;4.50;1.83;;;26.90;2.50;;;;;;5041010;28;45907;-64
2022/07/17 11:21:18;;;;;;;4.70;1.93;;;27.10;1.90;;;;;;5039982;28;46340;-64
2022/07/17 11:23:55;;;;;;;3.20;1.57;;;27.00;1.80;;;;;;5039234;28;46651;-64
2022/07/17 11:26:21;;;;;;;3.20;1.70;;;26.90;1.70;;;;;;5038194;28;46439;-64
2022/07/17 11:28:48;;;;;;;3.23;1.73;;;26.70;1.70;;;;;;5041302;28;46662;-63
2022/07/17 11:31:21;;;;;;;3.80;1.97;;;26.70;1.90;;;;;;5030864;28;46083;-64
2022/07/17 11:33:54;;;;;;;6.53;2.10;;;26.70;2.70;;;;;;5032378;28;46485;-64
2022/07/17 11:36:36;;;;;;;3.47;1.90;;;26.60;2.10;;;;;;5044510;28;46109;-63
2022/07/17 11:39:14;;;;;;;4.10;2.10;;;26.80;2.20;;;;;;5030679;28;46474;-63
2022/07/17 11:41:41;;;;;;;10.53;1.77;;;26.90;1.60;;;;;;5036644;28;47227;-64
2022/07/17 11:44:15;;;;;;;5.43;2.30;;;27.10;2.10;;;;;;5035495;28;46564;-63
2022/07/17 11:46:45;;;;;;;4.07;1.90;;;27.30;1.90;;;;;;5032526;28;46567;-63
2022/07/17 11:49:11;;;;;;;4.57;1.93;;;27.30;1.80;;;;;;5034066;28;46390;-64
2022/07/17 11:51:44;;;;;;;4.60;1.93;;;27.30;1.50;;;;;;5034302;28;47039;-61
2022/07/17 11:54:15;;;;;;;7.43;2.23;;;27.20;1.50;;;;;;5031383;28;46434;-63
2022/07/17 11:56:51;;;;;;;5.43;2.43;;;26.90;1.40;;;;;;5033499;28;46554;-63
2022/07/17 11:59:27;;;;;;;3.03;1.90;;;26.90;1.60;;;;;;5031340;28;46670;-62
2022/07/17 12:01:53;;;;;;;7.70;2.20;;;26.90;1.30;;;;;;5034154;28;46938;-63
2022/07/17 12:04:20;;;;;;;3.83;1.97;;;26.80;1.40;;;;;;5039309;28;46458;-63
2022/07/17 12:07:00;;;;;;;3.77;1.90;;;26.80;1.50;;;;;;5039387;28;46680;-62
2022/07/17 12:09:33;;;;;;;3.80;1.70;;;26.80;1.10;;;;;;5037510;28;46567;-62
2022/07/17 12:12:00;;;;;;;3.90;2.17;;;26.90;1.00;;;;;;5039292;28;46381;-62
2022/07/17 12:14:25;;;;;;;6.63;2.40;;;27.10;1.10;;;;;;5039932;28;46740;-63
2022/07/17 12:16:51;;;;;;;8.97;1.97;;;27.20;1.00;;;;;;5040087;28;46528;-62
2022/07/17 12:19:22;;;;;;;5.23;1.80;;;27.30;1.00;;;;;;5040300;28;46368;-62
2022/07/17 12:21:56;;;;;;;8.20;1.70;;;27.00;1.00;;;;;;5040107;28;46910;-64
2022/07/17 12:24:30;;;;;;;8.50;2.20;;;26.90;1.00;;;;;;5041840;28;46505;-63
2022/07/17 12:26:58;;;;;;;3.43;1.60;;;27.00;1.00;;;;;;5039648;28;46422;-63
2022/07/17 12:29:25;;;;;;;7.87;2.37;;;27.20;1.00;;;;;;5039588;28;46296;-62
2022/07/17 12:32:08;;;;;;;4.30;2.03;;;27.10;1.00;;;;;;5038872;28;46728;-63
2022/07/17 12:34:35;;;;;;;4.10;1.87;;;27.20;1.00;;;;;;5037810;28;45779;-63
2022/07/17 12:37:01;;;;;;;7.57;2.13;;;27.30;1.00;;;;;;5040504;28;46690;-64
2022/07/17 12:39:27;;;;;;;3.20;1.90;;;27.40;1.00;;;;;;5039568;28;45851;-63
2022/07/17 12:41:52;;;;;;;4.33;2.40;;;27.40;1.00;;;;;;5037949;28;46425;-63
2022/07/17 12:44:18;;;;;;;3.53;2.00;;;27.10;1.00;;;;;;5037127;28;46378;-63
2022/07/17 12:46:44;;;;;;;3.93;1.90;;;27.10;1.00;;;;;;5039200;28;46468;-63
2022/07/17 12:49:09;;;;;;;6.00;1.60;;;27.10;1.00;;;;;;5032462;28;47023;-62
2022/07/17 12:51:36;;;;;;;5.00;1.87;;;27.10;1.00;;;;;;5039322;28;46334;-62
2022/07/17 12:54:01;;;;;;;6.00;1.77;;;27.30;1.00;;;;;;5037645;28;46496;-62
2022/07/17 12:56:27;;;;;;;6.37;2.10;;;27.30;1.00;;;;;;5038225;28;45933;-62
2022/07/17 12:58:53;;;;;;;3.80;1.87;;;27.40;1.00;;;;;;5038186;28;46583;-62
2022/07/17 13:01:19;;;;;;;9.73;1.87;;;27.30;1.00;;;;;;5036561;28;46423;-62